• Join FlightAware (Why Join?)
  • Login
  • US Flag 
09:19AM EDT


 

Airport Tracker/Info


-or-


 

Live Flight TrackerFlight Track Log ✈ GJS3706 ✈ 05-May-2013 ✈ KORD - KBTV

Flight Track Log - Related Links

Times and Time Zones

All times are in EDT time to prevent confusion due to time zone crossing. See the GJS3706 flight status page for this flight to view local times or setup timezone preferences in your user account.

Time Position Orientation Groundspeed Altitude Reporting Facility
EDT Latitude Longitude Course Direction KTS MPH feet Rate Location/Type
09:06AM 42.0167 -87.8500 90° East 188 216 2,800  Level Chicago TRACON
09:07AM 42.0500 -87.8000 48° Northeast 244 281 4,800 1,260 Climbing Chicago TRACON
09:08AM 42.0833 -87.7167 62° Northeast 253 291 5,200 1,800 Climbing Chicago TRACON
09:09AM 42.1501 -87.3996 66° East  Level FlightAware Approximate
09:09AM 42.0833 -87.6167 90° East 259 298 8,300  Level Chicago TRACON
09:10AM 42.1936 -87.2693 66° East  Level FlightAware Approximate
09:11AM 42.2370 -87.1389 66° East  Level FlightAware Approximate
09:11AM 42.1500 -87.4344 64° Northeast 285 328 14,100  Level Chicago Center
09:12AM 42.2667 -87.0018 90° East  Level FlightAware Approximate
09:12AM 42.1875 -87.3261 65° Northeast 317 365 15,800  Level Chicago Center
09:13AM 42.2294 -87.2061 65° Northeast 351 404 17,700 1,800 Climbing Chicago Center
09:14AM 42.2731 -87.0781 65° Northeast 374 430 19,500 1,860 Climbing Chicago Center
09:15AM 42.2836 -86.9353 84° East 383 441 21,500 1,860 Climbing Chicago Center
09:16AM 42.2903 -86.7883 86° East 391 450 23,400 1,800 Climbing Chicago Center
09:17AM 42.2969 -86.6119 87° East 401 461 25,200 1,560 Climbing Chicago Center
09:18AM 42.3019 -86.4653 87° East 412 474 26,700 1,260 Climbing Chicago Center
09:19AM 42.3078 -86.3056 87° East 425 489 27,800 1,080 Climbing Chicago Center
09:21AM 42.3139 -86.1428 87° East 435 501 29,000 1,080 Climbing Chicago Center
09:22AM 42.3142 -85.9769 90° East 444 511 30,100 1,080 Climbing Chicago Center
09:23AM 42.3111 -85.7772 91° East 447 514 31,300 1,080 Climbing Chicago Center
09:24AM 42.3094 -85.6075 91° East 453 521 32,400 1,140 Climbing Chicago Center
09:25AM 42.3083 -85.4389 90° East 453 521 33,700 1,260 Climbing Chicago Center
09:26AM 42.3078 -85.2839 90° East 441 507 34,900 660 Climbing Cleveland Center
09:27AM 42.3061 -85.1208 91° East 441 507 35,000  Climbing Cleveland Center
09:28AM 42.3017 -84.9661 92° East 435 501 35,000  Level Cleveland Center
09:29AM 42.2972 -84.8028 92° East 425 489 35,000  Level Cleveland Center
09:30AM 42.2975 -84.6822 90° East 418 481 35,000  Level Cleveland Center
09:31AM 42.2850 -84.5044 95° East 423 487 35,000 300 Level Cleveland Center
09:32AM 42.3050 -84.3428 80° East 423 487 35,700 900 Climbing Cleveland Center
09:33AM 42.3267 -84.1839 79° East 423 487 36,800 600 Climbing Cleveland Center
09:34AM 42.3481 -84.0306 79° East 423 487 37,000 60 Climbing Cleveland Center
09:35AM 42.3694 -83.8714 80° East 423 487 37,000  Level Cleveland Center
09:36AM 42.3950 -83.7042 78° East 423 487 37,000  Level Cleveland Center
09:37AM 42.4097 -83.5417 83° East 430 495 37,000  Level Cleveland Center
09:38AM 42.4131 -83.4011 88° East 422 486 37,000  Level Cleveland Center
09:39AM 42.4217 -83.2189 86° East 422 486 37,000  Level Cleveland Center
09:40AM 42.4272 -83.0614 87° East 422 486 37,000  Level Cleveland Center
09:41AM 42.4306 -82.9011 88° East 422 486 37,000  Level Cleveland Center
09:42AM 42.4358 -82.7411 87° East 422 486 37,000  Level Cleveland Center
09:43AM 42.4408 -82.5808 88° East 422 486 37,000  Level Cleveland Center
09:44AM 42.4456 -82.4178 88° East 422 486 37,000  Level Cleveland Center
09:45AM 42.4500 -82.2547 88° East 422 486 37,000  Level Cleveland Center
09:46AM 42.4544 -82.0972 88° East 422 486 37,000  Level Cleveland Center
09:47AM 42.4581 -81.9622 88° East 428 493 37,000  Level Cleveland Center
09:48AM 42.4625 -81.7653 88° East 428 493 37,000  Level Cleveland Center
09:49AM 42.4683 -81.5992 87° East 436 502 37,000  Level Cleveland Center
09:50AM 42.4694 -81.4361 89° East 436 502 37,000  Level Cleveland Center
09:51AM 42.4725 -81.2897 88° East 441 507 37,000  Level Cleveland Center
09:52AM 42.4756 -81.1264 88° East 441 507 37,000  Level Cleveland Center
09:53AM 42.4783 -80.9575 89° East 441 507 37,000  Level Cleveland Center
09:54AM 42.4808 -80.7886 89° East 441 507 37,000  Level Cleveland Center
09:55AM 42.4831 -80.6225 89° East 441 507 37,000  Level Cleveland Center
09:56AM 42.4850 -80.4367 89° East 441 507 37,000  Level Cleveland Center
09:57AM 42.4847 -80.2678 90° East 441 507 37,000  Level Cleveland Center
09:58AM 42.4883 -80.0989 88° East 441 507 37,000  Level Cleveland Center
09:59AM 42.4919 -79.9497 88° East 441 507 37,000  Level Cleveland Center
10:00AM 42.4908 -79.7836 90° East 441 507 37,000  Level Cleveland Center
10:01AM 42.4936 -79.6172 89° East 441 507 37,000  Level Cleveland Center
10:02AM 42.4922 -79.4483 91° East 441 507 37,000  Level Cleveland Center
10:03AM 42.4925 -79.2711 90° East 436 502 37,000  Level Cleveland Center
10:04AM 42.5322 -79.1264 70° East 436 502 37,000  Level Cleveland Center
10:05AM 42.5928 -78.9783 61° Northeast 436 502 37,000  Level Cleveland Center
10:06AM 42.6492 -78.8303 63° Northeast 436 502 37,000  Level Cleveland Center
10:07AM 42.7092 -78.6817 61° Northeast 436 502 37,000  Level Cleveland Center
10:08AM 42.7650 -78.5300 63° Northeast 442 509 37,000  Level Cleveland Center
10:09AM 42.8228 -78.3808 62° Northeast 442 509 37,000  Level Cleveland Center
10:10AM 42.8842 -78.2200 62° Northeast 437 503 37,000  Level Cleveland Center
10:11AM 42.9414 -78.0703 62° Northeast 437 503 37,000  Level Cleveland Center
10:12AM 42.9964 -77.9206 63° Northeast 437 503 37,000  Level Cleveland Center
10:13AM 43.0533 -77.7675 63° Northeast 437 503 37,000  Level Cleveland Center
10:14AM 43.1081 -77.6200 63° Northeast 437 503 37,000  Level Cleveland Center
10:16AM 43.2217 -77.3161 63° Northeast 444 511 37,000  Level Boston Center
10:17AM 43.2781 -77.1636 63° Northeast 444 511 37,000  Level Boston Center
10:18AM 43.3319 -77.0164 63° Northeast 439 505 37,000  Level Boston Center
10:19AM 43.3858 -76.8661 64° Northeast 439 505 37,000  Level Boston Center
10:20AM 43.4417 -76.7131 63° Northeast 439 505 37,000  Level Boston Center
10:21AM 43.4925 -76.5819 62° Northeast 444 511 37,000  Level Boston Center
10:22AM 43.5436 -76.4306 65° Northeast 439 505 37,000  Level Boston Center
10:23AM 43.5906 -76.2761 67° East 439 505 37,000 -60 Level Boston Center
10:24AM 43.6375 -76.1242 67° East 434 499 36,900 -600 Descending Boston Center
10:25AM 43.6842 -75.9661 68° East 434 499 35,800 -1,200 Descending Boston Center
10:26AM 43.7306 -75.8078 68° East 429 494 34,500 -1,380 Descending Boston Center
10:27AM 43.7767 -75.6494 68° East 434 499 33,100 -1,440 Descending Boston Center
10:28AM 43.8247 -75.4908 67° East 439 505 31,700 -1,440 Descending Boston Center
10:29AM 43.8728 -75.3289 68° East 444 511 30,300 -1,620 Descending Boston Center
10:30AM 43.9164 -75.1667 69° East 449 517 28,500 -1,980 Descending Boston Center
10:31AM 43.9594 -75.0186 68° East 431 496 26,400 -2,100 Descending Boston Center
10:32AM 44.0022 -74.8703 68° East 418 481 24,300 -1,860 Descending Boston Center
10:33AM 44.0428 -74.7219 69° East 413 475 22,700 -1,560 Descending Boston Center
10:34AM 44.0831 -74.5817 68° East 399 459 21,200 -1,500 Descending Boston Center
10:35AM 44.1211 -74.4414 69° East 388 447 19,700 -1,560 Descending Boston Center
10:36AM 44.1608 -74.3067 68° East 383 441 18,100 -1,500 Descending Boston Center
10:37AM 44.1983 -74.1689 69° East 383 441 16,800 -1,260 Descending Boston Center
10:38AM 44.2269 -74.0625 69° East 377 434 15,600 -1,500 Descending Boston Center
10:39AM 44.2708 -73.9014 69° East 365 420 13,900 -1,620 Descending Boston Center
10:40AM 44.3097 -73.7833 65° Northeast 359 413 12,100 -1,800 Descending Boston Center
10:41AM 44.3592 -73.6481 63° Northeast 310 357 10,000 -2,040 Descending Boston Center
10:42AM 44.3933 -73.5556 63° Northeast 274 315 8,100 -2,340 Descending Boston Center
10:43AM 44.4275 -73.4633 63° Northeast 263 303 5,400 -2,220 Descending Boston Center
10:44AM 44.4597 -73.3794 62° Northeast 258 297 3,700 -1,260 Descending Boston Center
10:45AM 44.4975 -73.3219 47° Northeast 234 269 2,900 -840 Descending Boston Center
10:46AM 44.5208 -73.2697 58° Northeast 179 206 2,100 -840 Descending Boston Center